This is the latest recevied weather packets stored in our database for station/object N8WEL. If no packets are shown the sender has not sent any weather packets the latest 10 day(s).
| Time | Temp. | Humidity | Pressure | Rain* | Wind** | Luminosity | Snow |
|---|---|---|---|---|---|---|---|
| 1787739962 | - | - | 1016.5 hPa | 0 mm | - | - | - |
| 1787739662 | - | - | 1016.5 hPa | 0 mm | - | - | - |
| 1787739062 | 12.78° C | - | 1016.5 hPa | 0 mm | - | - | - |
| 1787737796 | 12.22° C | 97% | 1016.6 hPa | 0 mm | - | - | - |
| 1787737196 | 12.22° C | 97% | 1016.6 hPa | 0 mm | - | - | - |
| 1787735696 | 12.22° C | 97% | 1016.7 hPa | 0 mm | - | - | - |
| 1787734796 | 12.78° C | 97% | 1016.7 hPa | 0 mm | - | - | - |
| 1787733649 | 12.78° C | 96% | 1016.9 hPa | 0 mm | - | - | - |
| 1787733349 | 12.78° C | 96% | 1016.9 hPa | 0 mm | - | - | - |
| 1787732749 | 12.78° C | 96% | 1017 hPa | 0 mm | - | - | - |
| 1787731549 | 12.78° C | 96% | 1017.1 hPa | 0 mm | - | - | - |
| 1787731249 | 12.78° C | 96% | 1017.1 hPa | 0 mm | - | - | - |
| 1787730949 | 12.78° C | 96% | 1017.2 hPa | 0 mm | - | - | - |
| 1787729025 | 13.33° C | 96% | 1017.1 hPa | 0 mm | - | - | - |
| 1787728425 | 13.33° C | 96% | 1017.2 hPa | 0 mm | - | - | - |
| 1787726025 | 13.89° C | 96% | 1017.2 hPa | 0 mm | - | - | - |
| 1787725425 | 13.89° C | 96% | 1017.3 hPa | 0 mm | - | - | - |
| 1787666190 | 20.56° C | 66% | 1020.2 hPa | 0 mm | - | - | - |
| 1787661990 | 16.11° C | 95% | 1019.7 hPa | 0 mm | - | - | - |
| 1787661328 | 16.11° C | 98% | 1019.7 hPa | 0 mm | - | - | - |
| 1787661028 | 15.56° C | 98% | 1019.5 hPa | 0 mm | - | - | - |
| 1787660127 | 13.89° C | 98% | 1019.6 hPa | 0 mm | - | - | - |
| 1787659828 | 13.33° C | 98% | 1019.6 hPa | 0 mm | - | - | - |
| 1787659527 | 12.78° C | 98% | 1019.5 hPa | 0 mm | - | - | - |
| 1787659227 | 11.67° C | 98% | 1019.4 hPa | 0 mm | - | - | - |
* Rain latest hour (hover to see other rain measurements)
** Current wind speed in m/s (hover to see current wind gust speed)